createdAt,value
2019-02-14T00:01:06.463Z,0.72
2019-02-14T00:03:36.704Z,0.69
2019-02-14T00:06:06.493Z,0.79
2019-02-14T00:08:37.638Z,0.82
2019-02-14T00:11:07.907Z,0.92
2019-02-14T00:13:37.927Z,0.83
2019-02-14T00:16:08.259Z,0.70
2019-02-14T00:18:42.356Z,0.62
2019-02-14T00:21:14.294Z,0.60
2019-02-14T00:23:47.131Z,0.68
2019-02-14T00:26:18.088Z,0.69
2019-02-14T00:28:49.245Z,0.61
2019-02-14T00:31:24.217Z,0.70
2019-02-14T00:33:53.839Z,0.61
2019-02-14T00:36:23.841Z,0.59
2019-02-14T00:38:54.825Z,0.68
2019-02-14T00:41:25.033Z,0.78
2019-02-14T00:43:54.554Z,0.75
2019-02-14T00:46:24.017Z,0.73
2019-02-14T00:48:55.824Z,0.82
2019-02-14T00:51:25.740Z,0.80
2019-02-14T00:53:55.196Z,0.77
2019-02-14T00:56:25.477Z,0.73
2019-02-14T00:58:54.960Z,0.62
2019-02-14T01:01:24.588Z,0.42
2019-02-14T01:03:55.957Z,0.27
2019-02-14T01:06:26.621Z,0.30
2019-02-14T01:08:57.831Z,0.36
2019-02-14T01:11:29.353Z,0.34
2019-02-14T01:13:58.905Z,0.36
2019-02-14T01:16:29.637Z,0.36
2019-02-14T01:19:03.439Z,0.44
2019-02-14T01:21:32.960Z,0.27
2019-02-14T01:24:02.224Z,0.18
2019-02-14T01:26:32.499Z,0.22
2019-02-14T01:29:02.475Z,0.23
2019-02-14T01:31:32.760Z,0.28
2019-02-14T01:34:02.241Z,0.33
2019-02-14T01:36:33.867Z,0.35
2019-02-14T01:39:03.214Z,0.41
2019-02-14T01:41:32.743Z,0.46
2019-02-14T01:44:02.239Z,0.55
2019-02-14T01:46:32.468Z,0.41
2019-02-14T01:49:05.770Z,0.40
2019-02-14T01:51:39.707Z,0.42
2019-02-14T01:54:11.942Z,0.35
2019-02-14T01:56:43.203Z,0.40
2019-02-14T01:59:13.429Z,0.38
2019-02-14T02:01:43.941Z,0.44
2019-02-14T02:04:13.150Z,0.49
2019-02-14T02:06:42.891Z,0.48
2019-02-14T02:09:12.620Z,0.50
2019-02-14T02:11:42.826Z,0.46
2019-02-14T02:14:14.513Z,0.40
2019-02-14T02:16:43.782Z,0.40
2019-02-14T02:19:13.526Z,0.38
2019-02-14T02:21:42.720Z,0.36
2019-02-14T02:24:12.251Z,0.23
2019-02-14T02:26:44.219Z,0.13
2019-02-14T02:29:18.052Z,0.25
2019-02-14T02:31:47.598Z,0.18
2019-02-14T02:34:17.164Z,0.18
2019-02-14T02:36:47.386Z,0.16
2019-02-14T02:39:17.291Z,0.23
2019-02-14T02:41:48.679Z,0.13
2019-02-14T02:44:20.968Z,0.13
2019-02-14T02:46:53.712Z,0.18
2019-02-14T02:49:23.474Z,0.12
2019-02-14T02:51:54.408Z,0.12
2019-02-14T02:54:23.618Z,0.06
2019-02-14T02:56:53.176Z,-0.02
2019-02-14T02:59:25.744Z,-0.02
2019-02-14T03:01:55.909Z,-0.03
2019-02-14T03:04:25.126Z,-0.03
2019-02-14T03:06:54.593Z,-0.06
2019-02-14T03:09:24.844Z,-0.07
2019-02-14T03:11:56.090Z,-0.13
2019-02-14T03:14:26.085Z,-0.14
2019-02-14T03:16:55.701Z,-0.05
2019-02-14T03:19:25.653Z,-0.03
2019-02-14T03:21:55.414Z,-0.02
2019-02-14T03:24:26.469Z,-0.08
2019-02-14T03:26:58.890Z,-0.15
2019-02-14T03:29:29.885Z,-0.21
2019-02-14T03:32:04.669Z,-0.19
2019-02-14T03:34:36.159Z,-0.21
2019-02-14T03:37:07.121Z,-0.21
2019-02-14T03:39:37.080Z,-0.18
2019-02-14T03:42:06.321Z,-0.11
2019-02-14T03:44:36.129Z,-0.11
2019-02-14T03:47:06.177Z,-0.19
2019-02-14T03:49:36.172Z,-0.14
2019-02-14T03:52:12.450Z,-0.19
2019-02-14T03:54:46.775Z,-0.20
2019-02-14T03:57:16.019Z,-0.25
2019-02-14T03:59:49.671Z,-0.23
2019-02-14T04:02:22.014Z,-0.32
2019-02-14T04:04:53.505Z,-0.30
2019-02-14T04:07:23.396Z,-0.36
2019-02-14T04:09:53.774Z,-0.35
2019-02-14T04:12:23.768Z,-0.32
2019-02-14T04:14:55.805Z,-0.34
2019-02-14T04:17:26.941Z,-0.28
2019-02-14T04:19:56.113Z,-0.40
2019-02-14T04:22:25.586Z,-0.41
2019-02-14T04:24:54.768Z,-0.34
2019-02-14T04:27:23.972Z,-0.28
2019-02-14T04:29:53.691Z,-0.32
2019-02-14T04:32:23.219Z,-0.27
2019-02-14T04:34:53.031Z,-0.24
2019-02-14T04:37:23.053Z,-0.21
2019-02-14T04:39:52.592Z,-0.22
2019-02-14T04:42:27.617Z,-0.33
2019-02-14T04:44:57.091Z,-0.28
2019-02-14T04:47:27.076Z,-0.33
2019-02-14T04:49:56.812Z,-0.47
2019-02-14T04:52:26.911Z,-0.41
2019-02-14T04:55:00.938Z,-0.39
2019-02-14T04:57:33.124Z,-0.34
2019-02-14T05:00:12.224Z,-0.34
2019-02-14T05:02:42.000Z,-0.28
2019-02-14T05:05:11.887Z,-0.35
2019-02-14T05:07:41.592Z,-0.37
2019-02-14T05:10:11.386Z,-0.40
2019-02-14T05:12:42.357Z,-0.42
2019-02-14T05:15:11.928Z,-0.42
2019-02-14T05:17:41.576Z,-0.40
2019-02-14T05:20:13.118Z,-0.47
2019-02-14T05:22:44.518Z,-0.52
2019-02-14T05:25:14.564Z,-0.52
2019-02-14T05:27:44.255Z,-0.54
2019-02-14T05:30:14.480Z,-0.48
2019-02-14T05:32:51.039Z,-0.50
2019-02-14T05:35:20.569Z,-0.50
2019-02-14T05:37:49.971Z,-0.52
2019-02-14T05:40:20.720Z,-0.54
2019-02-14T05:42:50.269Z,-0.57
2019-02-14T05:45:19.930Z,-0.63
2019-02-14T05:47:50.602Z,-0.64
2019-02-14T05:50:21.955Z,-0.74
2019-02-14T05:52:51.445Z,-0.75
2019-02-14T05:55:25.169Z,-0.69
2019-02-14T05:57:55.025Z,-0.66
2019-02-14T06:00:24.525Z,-0.69
2019-02-14T06:02:54.571Z,-0.66
2019-02-14T06:05:26.521Z,-0.68
2019-02-14T06:07:56.309Z,-0.74
2019-02-14T06:10:28.080Z,-0.75
2019-02-14T06:12:59.091Z,-0.80
2019-02-14T06:15:29.528Z,-0.78
2019-02-14T06:18:01.061Z,-0.74
2019-02-14T06:20:31.760Z,-0.75
2019-02-14T06:23:02.507Z,-0.73
2019-02-14T06:25:32.052Z,-0.71
2019-02-14T06:28:02.305Z,-0.75
2019-02-14T06:30:32.046Z,-0.85
2019-02-14T06:33:02.106Z,-0.91
2019-02-14T06:35:32.574Z,-0.90
2019-02-14T06:38:02.572Z,-0.88
2019-02-14T06:40:32.534Z,-0.84
2019-02-14T06:43:04.115Z,-0.88
2019-02-14T06:45:35.176Z,-0.88
2019-02-14T06:48:04.661Z,-0.90
2019-02-14T06:50:35.003Z,-0.87
2019-02-14T06:53:07.753Z,-0.85
2019-02-14T06:55:40.545Z,-0.78
2019-02-14T06:58:12.827Z,-0.73
2019-02-14T07:00:46.869Z,-0.69
2019-02-14T07:03:17.315Z,-0.63
2019-02-14T07:05:50.406Z,-0.55
2019-02-14T07:08:19.603Z,-0.50
2019-02-14T07:10:55.182Z,-0.47
2019-02-14T07:13:24.664Z,-0.48
2019-02-14T07:15:54.683Z,-0.44
2019-02-14T07:18:24.056Z,-0.40
2019-02-14T07:20:54.244Z,-0.36
2019-02-14T07:23:26.415Z,-0.34
2019-02-14T07:26:00.094Z,-0.46
2019-02-14T07:28:32.233Z,-0.36
2019-02-14T07:31:01.443Z,-0.23
2019-02-14T07:33:30.727Z,-0.13
2019-02-14T07:36:00.017Z,-0.19
2019-02-14T07:38:29.230Z,-0.26
2019-02-14T07:40:58.669Z,-0.17
2019-02-14T07:43:28.244Z,-0.10
2019-02-14T07:45:59.875Z,0.04
2019-02-14T07:48:29.368Z,0.12
2019-02-14T07:50:59.049Z,0.08
2019-02-14T07:53:28.626Z,0.16
2019-02-14T07:55:58.943Z,0.31
2019-02-14T07:58:35.606Z,0.27
2019-02-14T08:01:05.144Z,0.43
2019-02-14T08:03:34.844Z,0.51
2019-02-14T08:06:05.204Z,0.67
2019-02-14T08:08:36.838Z,0.79
2019-02-14T08:11:06.509Z,0.79
2019-02-14T08:13:37.829Z,0.72
2019-02-14T08:16:07.314Z,0.69
2019-02-14T08:18:36.583Z,0.76
2019-02-14T08:21:06.420Z,0.85
2019-02-14T08:23:36.420Z,1.05
2019-02-14T08:26:10.793Z,1.18
2019-02-14T08:28:39.253Z,1.19
2019-02-14T08:31:08.697Z,1.31
2019-02-14T08:33:38.000Z,1.32
2019-02-14T08:36:07.300Z,1.39
2019-02-14T08:38:38.371Z,1.35
2019-02-14T08:41:07.832Z,1.52
2019-02-14T08:43:37.069Z,1.57
2019-02-14T08:46:06.289Z,1.69
2019-02-14T08:48:35.474Z,1.86
2019-02-14T08:51:04.727Z,1.96
2019-02-14T08:53:34.483Z,2.13
2019-02-14T08:56:04.460Z,2.18
2019-02-14T08:58:34.243Z,2.28
2019-02-14T09:01:03.485Z,2.51
2019-02-14T09:03:32.686Z,2.78
2019-02-14T09:06:01.881Z,2.59
2019-02-14T09:08:31.805Z,2.85
2019-02-14T09:11:01.782Z,3.10
2019-02-14T09:13:31.288Z,3.15
2019-02-14T09:16:01.877Z,3.21
2019-02-14T09:18:32.020Z,3.21
2019-02-14T09:21:01.332Z,3.13
2019-02-14T09:23:30.530Z,3.26
2019-02-14T09:25:59.707Z,3.49
2019-02-14T09:28:29.195Z,3.58
2019-02-14T09:30:59.687Z,3.81
2019-02-14T09:33:28.952Z,4.02
2019-02-14T09:36:00.315Z,4.30
2019-02-14T09:38:29.532Z,4.47
2019-02-14T09:41:01.487Z,4.70
2019-02-14T09:43:32.880Z,4.87
2019-02-14T09:46:02.113Z,5.09
2019-02-14T09:48:31.317Z,5.21
2019-02-14T09:51:00.484Z,5.43
2019-02-14T09:53:30.449Z,5.42
2019-02-14T09:56:01.247Z,5.39
2019-02-14T09:58:30.913Z,5.48
2019-02-14T10:01:00.941Z,5.66
2019-02-14T10:03:32.320Z,5.68
2019-02-14T10:06:01.917Z,5.87
2019-02-14T10:08:31.281Z,5.90
2019-02-14T10:11:01.359Z,6.13
2019-02-14T10:13:36.254Z,6.62
2019-02-14T10:16:05.819Z,6.93
2019-02-14T10:18:35.136Z,7.08
2019-02-14T10:21:08.133Z,7.14
2019-02-14T10:23:38.328Z,7.22
2019-02-14T10:26:17.836Z,7.40
2019-02-14T10:28:48.039Z,7.25
2019-02-14T10:31:17.768Z,7.34
2019-02-14T10:33:47.239Z,7.43
2019-02-14T10:36:18.092Z,7.50
2019-02-14T10:38:47.963Z,7.69
2019-02-14T10:41:18.030Z,7.87
2019-02-14T10:44:00.923Z,7.96
2019-02-14T10:46:31.501Z,8.08
2019-02-14T10:49:01.515Z,7.96
2019-02-14T10:51:31.780Z,7.86
2019-02-14T10:54:02.264Z,7.63
2019-02-14T10:56:33.891Z,7.41
2019-02-14T10:59:03.951Z,7.33
2019-02-14T11:01:34.161Z,7.23
2019-02-14T11:04:03.643Z,7.22
2019-02-14T11:06:35.192Z,7.20
2019-02-14T11:09:05.870Z,7.20
2019-02-14T11:11:35.076Z,7.20
2019-02-14T11:14:04.339Z,7.09
2019-02-14T11:16:33.860Z,7.09
2019-02-14T11:19:03.031Z,7.12
2019-02-14T11:21:32.238Z,7.24
2019-02-14T11:24:12.630Z,7.29
2019-02-14T11:26:42.648Z,7.21
2019-02-14T11:29:11.813Z,7.05
2019-02-14T11:31:41.682Z,6.91
2019-02-14T11:34:11.318Z,6.95
2019-02-14T11:36:40.560Z,6.80
2019-02-14T11:39:18.538Z,6.92
2019-02-14T11:41:48.463Z,7.05
2019-02-14T11:44:17.679Z,7.25
2019-02-14T11:46:51.442Z,7.38
2019-02-14T11:49:19.644Z,7.49
2019-02-14T11:51:48.834Z,7.72
2019-02-14T11:54:18.097Z,7.75
2019-02-14T11:56:47.262Z,7.79
2019-02-14T11:59:16.808Z,7.88
2019-02-14T12:01:55.018Z,8.01
2019-02-14T12:04:17.683Z,8.08
2019-02-14T12:06:47.229Z,8.32
2019-02-14T12:09:20.491Z,8.60
2019-02-14T12:11:50.049Z,8.74
2019-02-14T12:14:19.507Z,8.69
2019-02-14T12:16:50.368Z,8.73
2019-02-14T12:19:20.092Z,8.91
2019-02-14T12:21:49.264Z,9.11
2019-02-14T12:24:18.719Z,9.38
2019-02-14T12:26:47.883Z,9.22
2019-02-14T12:29:17.123Z,9.42
2019-02-14T12:31:46.277Z,9.53
2019-02-14T12:34:15.499Z,8.34
2019-02-14T12:36:44.704Z,8.68
2019-02-14T12:39:13.903Z,8.85
2019-02-14T12:41:44.118Z,9.55
2019-02-14T12:44:13.309Z,9.70
2019-02-14T12:46:42.515Z,9.91
2019-02-14T12:49:11.696Z,10.00
2019-02-14T12:51:40.901Z,10.49
2019-02-14T12:54:10.100Z,10.55
2019-02-14T12:56:39.314Z,10.99
2019-02-14T12:59:09.411Z,11.49
2019-02-14T13:01:39.020Z,11.84
2019-02-14T13:04:09.384Z,12.14
2019-02-14T13:06:38.857Z,12.03
2019-02-14T13:09:19.482Z,12.06
2019-02-14T13:11:41.400Z,11.81
2019-02-14T13:14:11.158Z,12.16
2019-02-14T13:16:42.975Z,12.54
2019-02-14T13:19:13.247Z,12.53
2019-02-14T13:21:47.553Z,12.75
2019-02-14T13:24:21.341Z,13.00
2019-02-14T13:26:50.976Z,13.15
2019-02-14T13:29:21.014Z,13.25
2019-02-14T13:31:50.772Z,13.40
2019-02-14T13:34:20.807Z,13.31
2019-02-14T13:37:01.378Z,13.48
2019-02-14T13:39:29.714Z,13.62
2019-02-14T13:41:58.534Z,12.55
2019-02-14T13:44:29.851Z,12.17
2019-02-14T13:46:59.346Z,12.05
2019-02-14T13:49:32.983Z,12.59
2019-02-14T13:52:02.271Z,13.63
2019-02-14T13:54:31.440Z,14.26
2019-02-14T13:57:00.886Z,14.78
2019-02-14T13:59:32.393Z,14.77
2019-02-14T14:02:01.913Z,15.41
2019-02-14T14:04:32.187Z,15.15
2019-02-14T14:07:04.110Z,16.14
2019-02-14T14:09:38.784Z,16.31
2019-02-14T14:12:06.843Z,16.12
2019-02-14T14:14:40.860Z,16.54
2019-02-14T14:17:12.955Z,16.80
2019-02-14T14:19:44.389Z,16.86
2019-02-14T14:22:16.501Z,16.79
2019-02-14T14:24:49.364Z,17.13
2019-02-14T14:27:24.802Z,17.42
2019-02-14T14:29:56.476Z,17.60
2019-02-14T14:32:31.713Z,17.66
2019-02-14T14:35:05.941Z,17.86
2019-02-14T14:37:40.497Z,18.28
2019-02-14T14:40:11.190Z,17.56
2019-02-14T14:42:59.845Z,17.20
2019-02-14T14:45:47.416Z,17.72
2019-02-14T14:48:24.664Z,18.03
2019-02-14T14:50:54.799Z,18.28
2019-02-14T14:53:24.123Z,18.47
2019-02-14T14:55:54.200Z,17.94
2019-02-14T14:58:23.405Z,18.14
2019-02-14T15:00:53.099Z,18.06
2019-02-14T15:03:22.696Z,18.03
2019-02-14T15:05:57.085Z,17.95
2019-02-14T15:08:28.539Z,17.89
2019-02-14T15:10:58.886Z,18.07
2019-02-14T15:13:29.428Z,18.57
2019-02-14T15:15:59.003Z,19.03
2019-02-14T15:18:29.129Z,19.75
2019-02-14T15:20:58.758Z,19.75
2019-02-14T15:23:27.963Z,19.12
2019-02-14T15:25:57.580Z,19.27
2019-02-14T15:28:37.384Z,19.44
2019-02-14T15:31:07.608Z,19.03
2019-02-14T15:33:36.793Z,18.99
2019-02-14T15:36:06.978Z,19.25
2019-02-14T15:38:37.031Z,19.86
2019-02-14T15:41:07.553Z,19.95
2019-02-14T15:43:36.823Z,19.56
2019-02-14T15:46:08.084Z,19.24
2019-02-14T15:48:38.557Z,20.58
2019-02-14T15:51:07.797Z,20.65
2019-02-14T15:53:37.553Z,20.68
2019-02-14T15:56:09.090Z,20.17
2019-02-14T15:58:38.651Z,18.37
2019-02-14T16:01:07.846Z,18.77
2019-02-14T16:03:38.601Z,18.82
2019-02-14T16:06:08.513Z,18.39
2019-02-14T16:08:39.351Z,18.02
2019-02-14T16:11:11.773Z,17.32
2019-02-14T16:13:41.105Z,17.01
2019-02-14T16:16:10.714Z,16.22
2019-02-14T16:18:42.408Z,15.05
2019-02-14T16:21:12.171Z,14.83
2019-02-14T16:23:42.035Z,14.77
2019-02-14T16:26:12.955Z,14.43
2019-02-14T16:28:42.798Z,13.98
2019-02-14T16:31:12.933Z,13.49
2019-02-14T16:33:48.914Z,13.29
2019-02-14T16:36:20.624Z,12.96
2019-02-14T16:38:50.240Z,12.22
2019-02-14T16:41:20.279Z,11.99
2019-02-14T16:43:49.581Z,11.68
2019-02-14T16:46:19.472Z,11.78
2019-02-14T16:48:48.671Z,11.20
2019-02-14T16:51:17.839Z,10.92
2019-02-14T16:53:50.150Z,10.77
2019-02-14T16:56:19.337Z,10.69
2019-02-14T16:58:48.569Z,10.44
2019-02-14T17:01:17.993Z,10.39
2019-02-14T17:03:47.296Z,10.14
2019-02-14T17:06:19.411Z,10.17
2019-02-14T17:08:49.267Z,10.04
2019-02-14T17:11:23.594Z,9.96
2019-02-14T17:13:53.851Z,9.46
2019-02-14T17:16:23.425Z,9.39
2019-02-14T17:18:52.753Z,9.29
2019-02-14T17:21:22.504Z,9.22
2019-02-14T17:23:51.687Z,9.20
2019-02-14T17:26:21.905Z,9.15
2019-02-14T17:28:51.236Z,9.06
2019-02-14T17:31:20.482Z,9.11
2019-02-14T17:33:51.490Z,9.10
2019-02-14T17:36:20.759Z,8.87
2019-02-14T17:38:52.561Z,8.77
2019-02-14T17:41:22.187Z,8.67
2019-02-14T17:43:51.490Z,8.42
2019-02-14T17:46:20.837Z,8.28
2019-02-14T17:48:50.043Z,8.27
2019-02-14T17:51:19.827Z,8.23
2019-02-14T17:53:49.010Z,8.00
2019-02-14T17:56:21.093Z,7.92
2019-02-14T17:59:01.803Z,7.71
2019-02-14T18:01:36.404Z,7.64
2019-02-14T18:04:06.355Z,7.71
2019-02-14T18:06:35.707Z,7.67
2019-02-14T18:09:06.814Z,7.67
2019-02-14T18:11:36.828Z,7.73
2019-02-14T18:14:06.910Z,7.65
2019-02-14T18:16:36.724Z,7.60
2019-02-14T18:19:09.251Z,7.46
2019-02-14T18:21:42.982Z,7.48
2019-02-14T18:24:12.230Z,7.47
2019-02-14T18:26:42.876Z,7.54
2019-02-14T18:29:12.678Z,7.36
2019-02-14T18:31:43.747Z,7.17
2019-02-14T18:34:13.695Z,6.69
2019-02-14T18:36:42.979Z,6.70
2019-02-14T18:39:12.507Z,6.79
2019-02-14T18:41:42.260Z,6.70
2019-02-14T18:44:15.176Z,6.54
2019-02-14T18:46:55.323Z,6.42
2019-02-14T18:49:26.366Z,6.43
2019-02-14T18:51:57.634Z,6.50
2019-02-14T18:54:28.187Z,6.21
2019-02-14T18:56:57.424Z,6.20
2019-02-14T18:59:26.877Z,6.05
2019-02-14T19:01:56.076Z,5.70
2019-02-14T19:04:25.833Z,5.94
2019-02-14T19:06:57.058Z,5.85
2019-02-14T19:09:32.051Z,5.79
2019-02-14T19:12:10.134Z,5.75
2019-02-14T19:14:52.618Z,5.71
2019-02-14T19:17:23.477Z,5.74
2019-02-14T19:19:54.253Z,5.66
2019-02-14T19:22:24.048Z,5.72
2019-02-14T19:24:55.908Z,5.61
2019-02-14T19:27:28.738Z,5.48
2019-02-14T19:29:58.705Z,5.59
2019-02-14T19:32:30.425Z,5.59
2019-02-14T19:35:00.488Z,5.65
2019-02-14T19:37:34.067Z,5.45
2019-02-14T19:40:05.875Z,5.16
2019-02-14T19:42:39.024Z,5.31
2019-02-14T19:45:13.624Z,5.10
2019-02-14T19:47:49.557Z,5.13
2019-02-14T19:50:21.195Z,4.99
2019-02-14T19:52:55.445Z,5.10
2019-02-14T19:55:25.588Z,5.05
2019-02-14T19:57:59.214Z,4.97
2019-02-14T20:00:32.321Z,4.94
2019-02-14T20:03:02.428Z,5.07
2019-02-14T20:05:36.384Z,4.99
2019-02-14T20:08:05.988Z,4.93
2019-02-14T20:10:38.377Z,4.91
2019-02-14T20:13:09.989Z,4.80
2019-02-14T20:15:43.036Z,4.77
2019-02-14T20:18:12.840Z,4.70
2019-02-14T20:20:45.016Z,4.74
2019-02-14T20:23:15.065Z,4.64
2019-02-14T20:25:44.587Z,4.75
2019-02-14T20:28:13.741Z,4.79
2019-02-14T20:30:45.777Z,4.74
2019-02-14T20:33:16.892Z,4.53
2019-02-14T20:35:49.051Z,4.47
2019-02-14T20:38:20.974Z,4.52
2019-02-14T20:40:53.055Z,4.18
2019-02-14T20:43:22.513Z,4.26
2019-02-14T20:45:52.937Z,4.24
2019-02-14T20:48:22.114Z,4.47
2019-02-14T20:50:52.045Z,4.38
2019-02-14T20:53:21.262Z,4.24
2019-02-14T20:55:51.790Z,4.07
2019-02-14T20:58:21.333Z,4.03
2019-02-14T21:00:50.866Z,4.05
2019-02-14T21:03:20.289Z,3.97
2019-02-14T21:05:49.488Z,3.82
2019-02-14T21:08:19.014Z,3.85
2019-02-14T21:10:48.686Z,3.81
2019-02-14T21:13:21.154Z,3.64
2019-02-14T21:15:52.197Z,3.62
2019-02-14T21:18:21.675Z,3.58
2019-02-14T21:20:55.283Z,3.49
2019-02-14T21:23:24.497Z,3.53
2019-02-14T21:25:53.979Z,3.43
2019-02-14T21:28:25.276Z,3.40
2019-02-14T21:30:54.788Z,3.40
2019-02-14T21:33:25.535Z,3.37
2019-02-14T21:36:05.025Z,3.41
2019-02-14T21:38:37.490Z,3.28
2019-02-14T21:41:27.326Z,3.31
2019-02-14T21:43:56.579Z,3.22
2019-02-14T21:46:26.060Z,3.24
2019-02-14T21:48:56.163Z,3.12
2019-02-14T21:51:26.813Z,3.24
2019-02-14T21:54:00.968Z,3.14
2019-02-14T21:56:34.655Z,3.19
2019-02-14T21:59:08.393Z,3.16
2019-02-14T22:01:38.832Z,3.14
2019-02-14T22:04:08.701Z,3.13
2019-02-14T22:06:38.505Z,3.09
2019-02-14T22:09:09.205Z,3.15
2019-02-14T22:11:39.242Z,3.13
2019-02-14T22:14:08.744Z,3.24
2019-02-14T22:16:38.502Z,3.18
2019-02-14T22:19:12.538Z,3.14
2019-02-14T22:21:42.709Z,3.16
2019-02-14T22:24:12.961Z,3.18
2019-02-14T22:26:42.170Z,3.11
2019-02-14T22:29:11.603Z,3.10
2019-02-14T22:31:41.588Z,2.91
2019-02-14T22:34:13.355Z,2.60
2019-02-14T22:36:50.261Z,2.61
2019-02-14T22:39:19.962Z,2.66
2019-02-14T22:41:52.608Z,2.60
2019-02-14T22:44:24.923Z,2.59
2019-02-14T22:46:54.949Z,2.54
2019-02-14T22:49:24.403Z,2.48
2019-02-14T22:51:55.126Z,2.53
2019-02-14T22:54:24.585Z,2.46
2019-02-14T22:56:55.317Z,2.35
2019-02-14T22:59:25.291Z,2.40
2019-02-14T23:01:56.479Z,2.36
2019-02-14T23:04:29.709Z,2.34
2019-02-14T23:07:00.286Z,2.33
2019-02-14T23:09:29.438Z,2.40
2019-02-14T23:11:58.675Z,2.45
2019-02-14T23:14:31.246Z,2.42
2019-02-14T23:17:00.454Z,2.49
2019-02-14T23:19:34.242Z,2.55
2019-02-14T23:22:05.808Z,2.40
2019-02-14T23:24:39.732Z,2.39
2019-02-14T23:27:09.486Z,2.41
2019-02-14T23:29:38.872Z,2.35
2019-02-14T23:32:08.045Z,2.32
2019-02-14T23:34:39.539Z,2.28
2019-02-14T23:37:08.977Z,2.21
2019-02-14T23:39:38.818Z,2.16
2019-02-14T23:42:08.801Z,2.17
2019-02-14T23:44:39.062Z,1.94
2019-02-14T23:47:08.838Z,2.06
2019-02-14T23:49:38.381Z,2.03
2019-02-14T23:52:11.135Z,1.99
2019-02-14T23:54:41.576Z,1.98
2019-02-14T23:57:15.388Z,1.95
2019-02-14T23:59:45.972Z,2.03
